sensor_id;sensor_type;location;lat;lon;timestamp;P1;durP1;ratioP1;P2;durP2;ratioP2
4210;SDS011;2119;48.828;12.396;2022-10-16T00:01:21;5.00;;;4.57;;
4210;SDS011;2119;48.828;12.396;2022-10-16T00:06:22;6.37;;;4.60;;
4210;SDS011;2119;48.828;12.396;2022-10-16T00:11:25;9.07;;;7.70;;
4210;SDS011;2119;48.828;12.396;2022-10-16T00:16:28;7.50;;;6.90;;
4210;SDS011;2119;48.828;12.396;2022-10-16T00:21:29;8.13;;;7.33;;
4210;SDS011;2119;48.828;12.396;2022-10-16T00:26:30;8.07;;;7.27;;
4210;SDS011;2119;48.828;12.396;2022-10-16T00:31:31;6.77;;;6.20;;
4210;SDS011;2119;48.828;12.396;2022-10-16T00:36:33;5.40;;;4.90;;
4210;SDS011;2119;48.828;12.396;2022-10-16T00:41:33;4.77;;;4.37;;
4210;SDS011;2119;48.828;12.396;2022-10-16T00:51:35;4.97;;;4.65;;
4210;SDS011;2119;48.828;12.396;2022-10-16T00:56:36;4.80;;;4.23;;
4210;SDS011;2119;48.828;12.396;2022-10-16T01:01:38;3.40;;;3.20;;
4210;SDS011;2119;48.828;12.396;2022-10-16T01:12:22;6.80;;;4.50;;
4210;SDS011;2119;48.828;12.396;2022-10-16T01:28:07;3.30;;;3.10;;
4210;SDS011;2119;48.828;12.396;2022-10-16T01:33:17;8.40;;;3.80;;
4210;SDS011;2119;48.828;12.396;2022-10-16T01:43:31;4.47;;;4.07;;
4210;SDS011;2119;48.828;12.396;2022-10-16T01:48:33;6.10;;;4.50;;
4210;SDS011;2119;48.828;12.396;2022-10-16T01:53:35;4.27;;;3.97;;
4210;SDS011;2119;48.828;12.396;2022-10-16T01:58:40;5.20;;;4.80;;
4210;SDS011;2119;48.828;12.396;2022-10-16T02:03:44;5.20;;;4.70;;
4210;SDS011;2119;48.828;12.396;2022-10-16T02:08:48;5.30;;;4.60;;
4210;SDS011;2119;48.828;12.396;2022-10-16T02:13:50;9.40;;;4.50;;
4210;SDS011;2119;48.828;12.396;2022-10-16T02:18:54;5.10;;;4.60;;
4210;SDS011;2119;48.828;12.396;2022-10-16T02:23:56;5.90;;;5.53;;
4210;SDS011;2119;48.828;12.396;2022-10-16T02:29:06;9.47;;;5.17;;
4210;SDS011;2119;48.828;12.396;2022-10-16T02:34:09;5.97;;;5.67;;
4210;SDS011;2119;48.828;12.396;2022-10-16T02:39:11;5.80;;;5.50;;
4210;SDS011;2119;48.828;12.396;2022-10-16T02:44:14;5.75;;;5.40;;
4210;SDS011;2119;48.828;12.396;2022-10-16T02:49:15;5.13;;;4.70;;
4210;SDS011;2119;48.828;12.396;2022-10-16T02:54:18;4.40;;;4.10;;
4210;SDS011;2119;48.828;12.396;2022-10-16T02:59:18;5.23;;;3.90;;
4210;SDS011;2119;48.828;12.396;2022-10-16T03:04:19;5.13;;;4.43;;
4210;SDS011;2119;48.828;12.396;2022-10-16T03:09:20;4.43;;;4.10;;
4210;SDS011;2119;48.828;12.396;2022-10-16T03:14:22;5.10;;;3.80;;
4210;SDS011;2119;48.828;12.396;2022-10-16T03:19:24;6.60;;;4.27;;
4210;SDS011;2119;48.828;12.396;2022-10-16T03:24:25;3.67;;;3.37;;
4210;SDS011;2119;48.828;12.396;2022-10-16T03:29:26;3.90;;;2.77;;
4210;SDS011;2119;48.828;12.396;2022-10-16T03:34:28;2.83;;;2.53;;
4210;SDS011;2119;48.828;12.396;2022-10-16T03:39:29;5.47;;;2.80;;
4210;SDS011;2119;48.828;12.396;2022-10-16T03:44:30;3.10;;;2.80;;
4210;SDS011;2119;48.828;12.396;2022-10-16T03:49:31;4.10;;;3.80;;
4210;SDS011;2119;48.828;12.396;2022-10-16T03:54:33;3.73;;;3.30;;
4210;SDS011;2119;48.828;12.396;2022-10-16T03:59:33;4.27;;;3.67;;
4210;SDS011;2119;48.828;12.396;2022-10-16T04:04:34;3.55;;;2.97;;
4210;SDS011;2119;48.828;12.396;2022-10-16T04:09:34;4.30;;;4.00;;
4210;SDS011;2119;48.828;12.396;2022-10-16T04:14:36;4.27;;;3.87;;
4210;SDS011;2119;48.828;12.396;2022-10-16T04:19:36;6.40;;;6.00;;
4210;SDS011;2119;48.828;12.396;2022-10-16T04:24:37;4.85;;;4.45;;
4210;SDS011;2119;48.828;12.396;2022-10-16T04:29:37;5.55;;;4.38;;
4210;SDS011;2119;48.828;12.396;2022-10-16T04:34:38;9.30;;;7.93;;
4210;SDS011;2119;48.828;12.396;2022-10-16T04:39:40;8.57;;;7.87;;
4210;SDS011;2119;48.828;12.396;2022-10-16T04:44:41;12.23;;;8.00;;
4210;SDS011;2119;48.828;12.396;2022-10-16T04:49:41;4.20;;;3.90;;
4210;SDS011;2119;48.828;12.396;2022-10-16T04:54:42;4.13;;;3.92;;
4210;SDS011;2119;48.828;12.396;2022-10-16T04:59:42;5.15;;;4.75;;
4210;SDS011;2119;48.828;12.396;2022-10-16T05:04:42;4.07;;;3.70;;
4210;SDS011;2119;48.828;12.396;2022-10-16T05:09:43;3.17;;;2.97;;
4210;SDS011;2119;48.828;12.396;2022-10-16T05:14:43;5.05;;;3.97;;
4210;SDS011;2119;48.828;12.396;2022-10-16T05:19:43;5.10;;;4.43;;
4210;SDS011;2119;48.828;12.396;2022-10-16T05:24:47;4.55;;;4.25;;
4210;SDS011;2119;48.828;12.396;2022-10-16T05:29:48;5.27;;;4.00;;
4210;SDS011;2119;48.828;12.396;2022-10-16T05:34:48;4.30;;;4.10;;
4210;SDS011;2119;48.828;12.396;2022-10-16T05:39:50;4.30;;;3.90;;
4210;SDS011;2119;48.828;12.396;2022-10-16T05:44:50;4.65;;;4.25;;
4210;SDS011;2119;48.828;12.396;2022-10-16T05:49:53;4.27;;;3.87;;
4210;SDS011;2119;48.828;12.396;2022-10-16T05:54:53;4.80;;;4.33;;
4210;SDS011;2119;48.828;12.396;2022-10-16T05:59:54;6.47;;;5.93;;
4210;SDS011;2119;48.828;12.396;2022-10-16T06:04:54;7.70;;;7.00;;
4210;SDS011;2119;48.828;12.396;2022-10-16T06:09:57;6.65;;;6.10;;
4210;SDS011;2119;48.828;12.396;2022-10-16T06:14:57;7.47;;;6.70;;
4210;SDS011;2119;48.828;12.396;2022-10-16T06:20:00;8.23;;;6.43;;
4210;SDS011;2119;48.828;12.396;2022-10-16T06:25:00;7.60;;;6.80;;
4210;SDS011;2119;48.828;12.396;2022-10-16T06:30:02;6.77;;;6.27;;
4210;SDS011;2119;48.828;12.396;2022-10-16T06:35:04;6.70;;;6.10;;
4210;SDS011;2119;48.828;12.396;2022-10-16T06:40:05;12.43;;;6.90;;
4210;SDS011;2119;48.828;12.396;2022-10-16T06:45:05;7.17;;;6.57;;
4210;SDS011;2119;48.828;12.396;2022-10-16T06:50:06;7.40;;;6.80;;
4210;SDS011;2119;48.828;12.396;2022-10-16T06:55:07;6.83;;;6.23;;
4210;SDS011;2119;48.828;12.396;2022-10-16T07:00:07;6.15;;;5.65;;
4210;SDS011;2119;48.828;12.396;2022-10-16T07:10:12;6.40;;;5.47;;
4210;SDS011;2119;48.828;12.396;2022-10-16T07:15:22;6.15;;;5.65;;
4210;SDS011;2119;48.828;12.396;2022-10-16T07:20:23;7.53;;;5.60;;
4210;SDS011;2119;48.828;12.396;2022-10-16T07:25:38;8.13;;;5.60;;
4210;SDS011;2119;48.828;12.396;2022-10-16T07:30:50;6.00;;;5.43;;
4210;SDS011;2119;48.828;12.396;2022-10-16T07:36:04;6.30;;;5.27;;
4210;SDS011;2119;48.828;12.396;2022-10-16T07:41:09;6.67;;;6.07;;
4210;SDS011;2119;48.828;12.396;2022-10-16T07:46:09;6.77;;;6.10;;
4210;SDS011;2119;48.828;12.396;2022-10-16T07:51:10;8.03;;;5.73;;
4210;SDS011;2119;48.828;12.396;2022-10-16T07:56:10;6.00;;;5.60;;
4210;SDS011;2119;48.828;12.396;2022-10-16T08:01:14;6.10;;;5.60;;
4210;SDS011;2119;48.828;12.396;2022-10-16T08:06:14;5.33;;;4.83;;
4210;SDS011;2119;48.828;12.396;2022-10-16T08:11:15;5.47;;;5.07;;
4210;SDS011;2119;48.828;12.396;2022-10-16T08:16:21;5.63;;;5.23;;
4210;SDS011;2119;48.828;12.396;2022-10-16T08:21:22;5.67;;;4.70;;
4210;SDS011;2119;48.828;12.396;2022-10-16T08:26:24;4.40;;;4.00;;
4210;SDS011;2119;48.828;12.396;2022-10-16T08:31:25;4.60;;;4.30;;
4210;SDS011;2119;48.828;12.396;2022-10-16T08:36:27;7.03;;;4.50;;
4210;SDS011;2119;48.828;12.396;2022-10-16T08:51:31;3.70;;;3.50;;
4210;SDS011;2119;48.828;12.396;2022-10-16T08:56:32;3.70;;;3.40;;
4210;SDS011;2119;48.828;12.396;2022-10-16T09:01:37;3.40;;;3.20;;
4210;SDS011;2119;48.828;12.396;2022-10-16T09:11:48;3.87;;;2.90;;
4210;SDS011;2119;48.828;12.396;2022-10-16T09:16:57;3.27;;;2.97;;
4210;SDS011;2119;48.828;12.396;2022-10-16T09:22:01;5.30;;;3.20;;
4210;SDS011;2119;48.828;12.396;2022-10-16T09:27:02;3.43;;;3.13;;
4210;SDS011;2119;48.828;12.396;2022-10-16T09:32:12;2.83;;;2.70;;
4210;SDS011;2119;48.828;12.396;2022-10-16T09:37:13;3.53;;;2.83;;
4210;SDS011;2119;48.828;12.396;2022-10-16T09:42:35;2.93;;;2.73;;
4210;SDS011;2119;48.828;12.396;2022-10-16T09:47:36;6.10;;;3.10;;
4210;SDS011;2119;48.828;12.396;2022-10-16T09:52:39;4.43;;;2.90;;
4210;SDS011;2119;48.828;12.396;2022-10-16T09:57:52;3.50;;;2.65;;
4210;SDS011;2119;48.828;12.396;2022-10-16T10:02:53;5.90;;;2.53;;
4210;SDS011;2119;48.828;12.396;2022-10-16T10:08:02;2.60;;;2.43;;
4210;SDS011;2119;48.828;12.396;2022-10-16T10:13:28;2.73;;;2.53;;
4210;SDS011;2119;48.828;12.396;2022-10-16T10:18:27;2.60;;;2.40;;
4210;SDS011;2119;48.828;12.396;2022-10-16T10:23:28;5.10;;;2.38;;
4210;SDS011;2119;48.828;12.396;2022-10-16T10:28:38;3.20;;;2.57;;
4210;SDS011;2119;48.828;12.396;2022-10-16T10:33:44;2.43;;;2.33;;
4210;SDS011;2119;48.828;12.396;2022-10-16T10:38:51;2.93;;;2.60;;
4210;SDS011;2119;48.828;12.396;2022-10-16T10:54:34;2.38;;;2.28;;
4210;SDS011;2119;48.828;12.396;2022-10-16T11:09:45;2.30;;;2.10;;
4210;SDS011;2119;48.828;12.396;2022-10-16T11:20:28;2.63;;;2.43;;
4210;SDS011;2119;48.828;12.396;2022-10-16T11:25:27;2.53;;;2.33;;
4210;SDS011;2119;48.828;12.396;2022-10-16T11:30:29;3.50;;;2.20;;
4210;SDS011;2119;48.828;12.396;2022-10-16T11:40:37;2.00;;;1.90;;
4210;SDS011;2119;48.828;12.396;2022-10-16T11:50:57;3.38;;;2.20;;
4210;SDS011;2119;48.828;12.396;2022-10-16T11:56:00;3.20;;;2.40;;
4210;SDS011;2119;48.828;12.396;2022-10-16T12:16:24;2.30;;;2.10;;
4210;SDS011;2119;48.828;12.396;2022-10-16T12:21:29;4.27;;;2.37;;
4210;SDS011;2119;48.828;12.396;2022-10-16T12:26:31;2.47;;;2.27;;
4210;SDS011;2119;48.828;12.396;2022-10-16T12:31:39;2.13;;;1.93;;
4210;SDS011;2119;48.828;12.396;2022-10-16T12:36:43;3.13;;;2.50;;
4210;SDS011;2119;48.828;12.396;2022-10-16T12:41:44;2.43;;;2.23;;
4210;SDS011;2119;48.828;12.396;2022-10-16T12:46:44;2.43;;;2.30;;
4210;SDS011;2119;48.828;12.396;2022-10-16T12:51:44;2.30;;;2.10;;
4210;SDS011;2119;48.828;12.396;2022-10-16T13:02:14;3.60;;;2.00;;
4210;SDS011;2119;48.828;12.396;2022-10-16T13:07:29;3.47;;;1.83;;
4210;SDS011;2119;48.828;12.396;2022-10-16T13:33:02;2.97;;;2.63;;
4210;SDS011;2119;48.828;12.396;2022-10-16T13:38:14;2.67;;;2.33;;
4210;SDS011;2119;48.828;12.396;2022-10-16T13:43:17;2.63;;;2.43;;
4210;SDS011;2119;48.828;12.396;2022-10-16T13:48:21;2.40;;;2.20;;
4210;SDS011;2119;48.828;12.396;2022-10-16T13:58:27;3.10;;;2.43;;
4210;SDS011;2119;48.828;12.396;2022-10-16T14:03:28;3.17;;;2.97;;
4210;SDS011;2119;48.828;12.396;2022-10-16T14:08:30;2.83;;;2.63;;
4210;SDS011;2119;48.828;12.396;2022-10-16T14:18:33;2.97;;;2.77;;
4210;SDS011;2119;48.828;12.396;2022-10-16T14:23:36;4.43;;;2.90;;
4210;SDS011;2119;48.828;12.396;2022-10-16T14:28:38;3.07;;;2.87;;
4210;SDS011;2119;48.828;12.396;2022-10-16T14:33:44;3.93;;;2.97;;
4210;SDS011;2119;48.828;12.396;2022-10-16T14:39:27;2.90;;;2.70;;
4210;SDS011;2119;48.828;12.396;2022-10-16T14:44:09;4.10;;;2.90;;
4210;SDS011;2119;48.828;12.396;2022-10-16T14:54:14;3.73;;;2.93;;
4210;SDS011;2119;48.828;12.396;2022-10-16T14:59:57;3.63;;;3.43;;
4210;SDS011;2119;48.828;12.396;2022-10-16T15:04:38;3.37;;;3.17;;
4210;SDS011;2119;48.828;12.396;2022-10-16T15:09:39;2.80;;;2.60;;
4210;SDS011;2119;48.828;12.396;2022-10-16T15:14:39;4.20;;;3.00;;
4210;SDS011;2119;48.828;12.396;2022-10-16T15:19:39;3.77;;;3.50;;
4210;SDS011;2119;48.828;12.396;2022-10-16T15:24:39;5.50;;;5.07;;
4210;SDS011;2119;48.828;12.396;2022-10-16T15:29:40;9.10;;;4.88;;
4210;SDS011;2119;48.828;12.396;2022-10-16T15:34:40;4.03;;;3.73;;
4210;SDS011;2119;48.828;12.396;2022-10-16T15:39:40;6.17;;;3.93;;
4210;SDS011;2119;48.828;12.396;2022-10-16T15:44:40;4.83;;;4.43;;
4210;SDS011;2119;48.828;12.396;2022-10-16T15:49:41;4.80;;;4.38;;
4210;SDS011;2119;48.828;12.396;2022-10-16T15:54:41;4.73;;;4.20;;
4210;SDS011;2119;48.828;12.396;2022-10-16T15:59:41;4.97;;;4.67;;
4210;SDS011;2119;48.828;12.396;2022-10-16T16:04:41;5.30;;;4.73;;
4210;SDS011;2119;48.828;12.396;2022-10-16T16:09:42;5.33;;;4.93;;
4210;SDS011;2119;48.828;12.396;2022-10-16T16:14:44;6.90;;;6.27;;
4210;SDS011;2119;48.828;12.396;2022-10-16T16:19:46;8.23;;;7.63;;
4210;SDS011;2119;48.828;12.396;2022-10-16T16:24:46;8.13;;;7.43;;
4210;SDS011;2119;48.828;12.396;2022-10-16T16:29:46;7.60;;;6.90;;
4210;SDS011;2119;48.828;12.396;2022-10-16T16:34:47;8.20;;;7.40;;
4210;SDS011;2119;48.828;12.396;2022-10-16T16:39:47;9.20;;;8.40;;
4210;SDS011;2119;48.828;12.396;2022-10-16T16:44:47;9.40;;;8.60;;
4210;SDS011;2119;48.828;12.396;2022-10-16T16:49:48;8.80;;;8.10;;
4210;SDS011;2119;48.828;12.396;2022-10-16T16:54:48;9.93;;;8.50;;
4210;SDS011;2119;48.828;12.396;2022-10-16T16:59:51;11.13;;;10.07;;
4210;SDS011;2119;48.828;12.396;2022-10-16T17:04:51;10.55;;;9.65;;
4210;SDS011;2119;48.828;12.396;2022-10-16T17:09:52;9.50;;;8.70;;
4210;SDS011;2119;48.828;12.396;2022-10-16T17:14:52;10.93;;;9.53;;
4210;SDS011;2119;48.828;12.396;2022-10-16T17:19:52;8.90;;;8.10;;
4210;SDS011;2119;48.828;12.396;2022-10-16T17:24:53;8.80;;;7.90;;
4210;SDS011;2119;48.828;12.396;2022-10-16T17:29:53;12.47;;;8.10;;
4210;SDS011;2119;48.828;12.396;2022-10-16T17:34:54;8.97;;;8.10;;
4210;SDS011;2119;48.828;12.396;2022-10-16T17:39:54;8.77;;;8.00;;
4210;SDS011;2119;48.828;12.396;2022-10-16T17:44:54;10.73;;;9.03;;
4210;SDS011;2119;48.828;12.396;2022-10-16T17:49:55;8.27;;;7.63;;
4210;SDS011;2119;48.828;12.396;2022-10-16T17:54:56;8.10;;;7.40;;
4210;SDS011;2119;48.828;12.396;2022-10-16T17:59:57;8.43;;;7.63;;
4210;SDS011;2119;48.828;12.396;2022-10-16T18:04:58;8.03;;;7.23;;
4210;SDS011;2119;48.828;12.396;2022-10-16T18:09:59;8.03;;;7.33;;
4210;SDS011;2119;48.828;12.396;2022-10-16T18:15:00;11.53;;;7.50;;
4210;SDS011;2119;48.828;12.396;2022-10-16T18:20:01;9.20;;;7.40;;
4210;SDS011;2119;48.828;12.396;2022-10-16T18:25:02;9.13;;;8.20;;
4210;SDS011;2119;48.828;12.396;2022-10-16T18:30:04;8.00;;;7.20;;
4210;SDS011;2119;48.828;12.396;2022-10-16T18:35:04;7.83;;;7.03;;
4210;SDS011;2119;48.828;12.396;2022-10-16T18:40:05;7.47;;;6.73;;
4210;SDS011;2119;48.828;12.396;2022-10-16T18:45:05;7.43;;;6.80;;
4210;SDS011;2119;48.828;12.396;2022-10-16T18:50:06;7.30;;;6.70;;
4210;SDS011;2119;48.828;12.396;2022-10-16T18:55:07;7.10;;;6.40;;
4210;SDS011;2119;48.828;12.396;2022-10-16T19:00:08;8.33;;;7.63;;
4210;SDS011;2119;48.828;12.396;2022-10-16T19:05:09;8.10;;;7.30;;
4210;SDS011;2119;48.828;12.396;2022-10-16T19:10:10;7.80;;;7.03;;
4210;SDS011;2119;48.828;12.396;2022-10-16T19:15:10;8.37;;;7.60;;
4210;SDS011;2119;48.828;12.396;2022-10-16T19:20:10;8.70;;;7.90;;
4210;SDS011;2119;48.828;12.396;2022-10-16T19:25:11;8.07;;;7.47;;
4210;SDS011;2119;48.828;12.396;2022-10-16T19:30:12;8.00;;;7.20;;
4210;SDS011;2119;48.828;12.396;2022-10-16T19:35:12;9.30;;;8.40;;
4210;SDS011;2119;48.828;12.396;2022-10-16T19:40:14;9.00;;;8.10;;
4210;SDS011;2119;48.828;12.396;2022-10-16T19:45:14;9.80;;;8.90;;
4210;SDS011;2119;48.828;12.396;2022-10-16T19:50:14;10.20;;;7.70;;
4210;SDS011;2119;48.828;12.396;2022-10-16T19:55:15;8.90;;;8.10;;
4210;SDS011;2119;48.828;12.396;2022-10-16T20:00:16;9.27;;;8.13;;
4210;SDS011;2119;48.828;12.396;2022-10-16T20:05:17;8.17;;;7.43;;
4210;SDS011;2119;48.828;12.396;2022-10-16T20:10:17;8.93;;;7.22;;
4210;SDS011;2119;48.828;12.396;2022-10-16T20:15:17;7.90;;;7.07;;
4210;SDS011;2119;48.828;12.396;2022-10-16T20:20:17;7.32;;;6.63;;
4210;SDS011;2119;48.828;12.396;2022-10-16T20:25:18;8.70;;;7.80;;
4210;SDS011;2119;48.828;12.396;2022-10-16T20:30:18;8.30;;;7.60;;
4210;SDS011;2119;48.828;12.396;2022-10-16T20:35:18;10.63;;;8.37;;
4210;SDS011;2119;48.828;12.396;2022-10-16T20:40:18;8.40;;;7.53;;
4210;SDS011;2119;48.828;12.396;2022-10-16T20:45:19;10.77;;;8.55;;
4210;SDS011;2119;48.828;12.396;2022-10-16T20:50:19;9.60;;;8.60;;
4210;SDS011;2119;48.828;12.396;2022-10-16T20:55:19;9.23;;;7.97;;
4210;SDS011;2119;48.828;12.396;2022-10-16T21:00:20;8.53;;;7.80;;
4210;SDS011;2119;48.828;12.396;2022-10-16T21:05:20;12.10;;;7.60;;
4210;SDS011;2119;48.828;12.396;2022-10-16T21:10:21;14.30;;;7.13;;
4210;SDS011;2119;48.828;12.396;2022-10-16T21:15:21;9.40;;;7.00;;
4210;SDS011;2119;48.828;12.396;2022-10-16T21:20:21;10.00;;;8.83;;
4210;SDS011;2119;48.828;12.396;2022-10-16T21:25:22;7.88;;;6.82;;
4210;SDS011;2119;48.828;12.396;2022-10-16T21:30:22;9.52;;;7.32;;
4210;SDS011;2119;48.828;12.396;2022-10-16T21:35:22;8.77;;;6.90;;
4210;SDS011;2119;48.828;12.396;2022-10-16T21:40:23;7.80;;;7.00;;
4210;SDS011;2119;48.828;12.396;2022-10-16T21:45:23;10.27;;;7.50;;
4210;SDS011;2119;48.828;12.396;2022-10-16T21:50:23;10.65;;;8.05;;
4210;SDS011;2119;48.828;12.396;2022-10-16T21:55:23;10.90;;;8.13;;
4210;SDS011;2119;48.828;12.396;2022-10-16T22:00:24;7.07;;;6.38;;
4210;SDS011;2119;48.828;12.396;2022-10-16T22:05:24;7.18;;;6.57;;
4210;SDS011;2119;48.828;12.396;2022-10-16T22:10:24;7.17;;;6.57;;
4210;SDS011;2119;48.828;12.396;2022-10-16T22:15:24;6.65;;;6.05;;
4210;SDS011;2119;48.828;12.396;2022-10-16T22:20:25;6.22;;;5.72;;
4210;SDS011;2119;48.828;12.396;2022-10-16T22:25:25;8.23;;;6.00;;
4210;SDS011;2119;48.828;12.396;2022-10-16T22:30:25;6.43;;;5.60;;
4210;SDS011;2119;48.828;12.396;2022-10-16T22:35:25;11.48;;;5.60;;
4210;SDS011;2119;48.828;12.396;2022-10-16T22:40:26;8.98;;;6.28;;
4210;SDS011;2119;48.828;12.396;2022-10-16T22:45:26;6.40;;;5.90;;
4210;SDS011;2119;48.828;12.396;2022-10-16T22:50:26;5.88;;;5.30;;
4210;SDS011;2119;48.828;12.396;2022-10-16T22:55:26;6.05;;;5.55;;
4210;SDS011;2119;48.828;12.396;2022-10-16T23:00:27;6.20;;;5.60;;
4210;SDS011;2119;48.828;12.396;2022-10-16T23:05:27;7.93;;;6.22;;
4210;SDS011;2119;48.828;12.396;2022-10-16T23:10:27;7.07;;;6.10;;
4210;SDS011;2119;48.828;12.396;2022-10-16T23:15:29;6.93;;;5.47;;
4210;SDS011;2119;48.828;12.396;2022-10-16T23:20:29;6.73;;;5.80;;
4210;SDS011;2119;48.828;12.396;2022-10-16T23:25:29;6.73;;;6.13;;
4210;SDS011;2119;48.828;12.396;2022-10-16T23:30:29;5.93;;;5.43;;
4210;SDS011;2119;48.828;12.396;2022-10-16T23:35:30;6.60;;;5.90;;
4210;SDS011;2119;48.828;12.396;2022-10-16T23:40:30;6.00;;;5.50;;
4210;SDS011;2119;48.828;12.396;2022-10-16T23:45:30;6.43;;;5.78;;
4210;SDS011;2119;48.828;12.396;2022-10-16T23:50:30;8.90;;;5.87;;
4210;SDS011;2119;48.828;12.396;2022-10-16T23:55:31;6.53;;;5.55;;
